SALOWI 241450Z 08009KT 060V120 9999 FEW080 20/02 Q1017 NOSIG
FTLOWI 241115Z 2412/2512 08008KT CAVOK TX20/2415Z TN06/2505Z BECMG 2417/2419 VRB02KT BECMG 2419/2421 27006KT 9999 SCT030 BKN070 TEMPO 2503/2512 27015G25KT SHRA SCT010 BKN020